Time;durP1;ratioP1;P1;durP2;ratioP2;P2;SDS_P1;SDS_P2;PMS_P1;PMS_P2;Temp;Humidity;BMP_temperature;BMP_pressure;BME280_temperature;BME280_humidity;BME280_pressure;Samples;Min_cycle;Max_cycle;Signal;HPM_P1;HPM_P2
2023/01/31 00:01:14;;;;;;;37.20;21.47;;;8.50;1.00;;;;;;5027716;28;20090;-45
2023/01/31 00:03:42;;;;;;;39.97;22.33;;;8.40;1.00;;;;;;5021510;28;20406;-44
2023/01/31 00:06:29;;;;;;;38.10;21.47;;;8.50;1.00;;;;;;5019123;28;20029;-44
2023/01/31 00:08:55;;;;;;;41.27;23.53;;;8.40;1.00;;;;;;5033240;28;20025;-43
2023/01/31 00:11:23;;;;;;;36.37;21.13;;;8.30;1.00;;;;;;5032843;28;20017;-44
2023/01/31 00:13:49;;;;;;;44.40;24.83;;;8.30;1.00;;;;;;5033064;28;20040;-44
2023/01/31 00:16:16;;;;;;;38.83;23.97;;;8.20;1.00;;;;;;5033162;28;20026;-44
2023/01/31 00:18:42;;;;;;;40.60;25.50;;;8.00;1.00;;;;;;5019612;28;20045;-44
2023/01/31 00:21:20;;;;;;;41.83;23.93;;;8.00;1.00;;;;;;5022522;28;20117;-43
2023/01/31 00:23:47;;;;;;;37.23;24.10;;;8.10;1.00;;;;;;5032604;28;20083;-45
2023/01/31 00:26:24;;;;;;;42.60;25.77;;;8.10;1.00;;;;;;5040749;28;20043;-43
2023/01/31 00:28:52;;;;;;;40.67;25.67;;;7.90;1.00;;;;;;5037062;28;20430;-45
2023/01/31 00:31:19;;;;;;;39.37;25.20;;;7.70;1.00;;;;;;5032757;28;20148;-44
2023/01/31 00:33:46;;;;;;;44.43;27.03;;;7.70;1.00;;;;;;5032533;28;20108;-44
2023/01/31 00:36:16;;;;;;;52.23;28.73;;;7.40;1.00;;;;;;5032686;28;20022;-45
2023/01/31 00:38:43;;;;;;;50.97;29.10;;;7.30;1.00;;;;;;5032457;28;20064;-43
2023/01/31 00:41:11;;;;;;;45.33;28.47;;;7.00;1.00;;;;;;5032365;28;20099;-45
2023/01/31 00:43:37;;;;;;;47.47;29.80;;;6.90;1.00;;;;;;5032398;28;20033;-45
2023/01/31 00:46:03;;;;;;;45.83;28.43;;;7.00;1.00;;;;;;5032295;28;20048;-44
2023/01/31 00:48:29;;;;;;;54.33;30.17;;;7.20;1.00;;;;;;5030740;28;20386;-44
2023/01/31 00:50:55;;;;;;;47.60;29.50;;;7.10;1.00;;;;;;5032154;28;20108;-44
2023/01/31 00:53:22;;;;;;;49.43;31.10;;;7.20;1.00;;;;;;5032426;28;20108;-44
2023/01/31 00:56:00;;;;;;;48.97;31.57;;;7.20;1.00;;;;;;5022589;28;20541;-43
2023/01/31 00:58:25;;;;;;;51.07;31.53;;;7.10;1.00;;;;;;5019985;28;20390;-43
2023/01/31 01:00:51;;;;;;;56.73;34.57;;;7.00;1.00;;;;;;5031781;28;20148;-45
2023/01/31 01:03:17;;;;;;;55.23;34.23;;;7.00;1.00;;;;;;5032361;28;20024;-44
2023/01/31 01:05:43;;;;;;;52.70;35.40;;;7.00;1.00;;;;;;5032061;28;20026;-44
2023/01/31 01:08:09;;;;;;;62.07;37.07;;;6.80;1.00;;;;;;5032072;28;20100;-44
2023/01/31 01:10:34;;;;;;;58.70;36.77;;;6.70;1.00;;;;;;5032581;28;20072;-46
2023/01/31 01:13:00;;;;;;;55.70;35.80;;;6.60;1.00;;;;;;5030599;28;20557;-44
2023/01/31 01:15:26;;;;;;;54.60;36.23;;;6.70;1.00;;;;;;5032088;28;20025;-44
2023/01/31 01:17:52;;;;;;;52.00;36.13;;;6.40;1.00;;;;;;5032013;28;20032;-44
2023/01/31 01:20:18;;;;;;;56.77;38.27;;;6.50;1.00;;;;;;5031782;28;20032;-43
2023/01/31 01:22:44;;;;;;;59.10;37.67;;;6.60;1.00;;;;;;5030727;28;20017;-44
2023/01/31 01:25:10;;;;;;;59.20;37.70;;;6.70;1.00;;;;;;5022085;28;20335;-44
2023/01/31 01:27:35;;;;;;;56.60;37.13;;;6.50;1.00;;;;;;5045904;28;20114;-44
2023/01/31 01:30:01;;;;;;;62.33;38.07;;;6.70;1.00;;;;;;5031987;28;20029;-44
2023/01/31 01:32:27;;;;;;;56.10;38.80;;;6.70;1.00;;;;;;5031902;28;20087;-44
2023/01/31 01:34:53;;;;;;;62.20;38.97;;;6.60;1.00;;;;;;5031897;28;20120;-43
2023/01/31 01:37:19;;;;;;;57.70;37.47;;;6.50;1.00;;;;;;5031911;28;20057;-44
2023/01/31 01:39:48;;;;;;;59.57;38.37;;;6.40;1.00;;;;;;5030390;28;20046;-44
2023/01/31 01:42:17;;;;;;;62.67;40.70;;;6.40;1.00;;;;;;5030561;28;20414;-44
2023/01/31 01:44:54;;;;;;;60.33;38.80;;;6.60;1.00;;;;;;5031804;28;20025;-44
2023/01/31 01:47:32;;;;;;;62.90;41.33;;;6.70;1.00;;;;;;5031808;28;20061;-44
2023/01/31 01:50:16;;;;;;;60.90;39.47;;;6.30;1.00;;;;;;5017402;28;20451;-44
2023/01/31 01:52:47;;;;;;;62.50;40.83;;;6.40;1.00;;;;;;5027916;28;20021;-43
2023/01/31 01:55:23;;;;;;;62.80;40.83;;;6.50;1.00;;;;;;5031775;28;20131;-43
2023/01/31 01:57:53;;;;;;;63.63;40.63;;;6.50;1.00;;;;;;5031566;28;20025;-43
2023/01/31 02:00:22;;;;;;;61.90;40.00;;;6.40;1.00;;;;;;5032594;28;20174;-43
2023/01/31 02:02:51;;;;;;;61.23;39.67;;;6.50;1.00;;;;;;5063201;28;20362;-43
2023/01/31 02:05:23;;;;;;;59.07;39.60;;;6.40;1.00;;;;;;5048276;28;20390;-44
2023/01/31 02:07:49;;;;;;;65.90;42.47;;;6.30;1.00;;;;;;5034343;28;20021;-43
2023/01/31 02:10:23;;;;;;;64.33;41.33;;;6.20;1.00;;;;;;5048933;28;20033;-44
2023/01/31 02:12:49;;;;;;;64.47;41.73;;;6.30;1.00;;;;;;5034446;28;20048;-44
2023/01/31 02:15:15;;;;;;;60.27;39.47;;;6.20;1.00;;;;;;5035021;28;20098;-43
2023/01/31 02:17:41;;;;;;;63.63;39.67;;;6.20;1.00;;;;;;5030149;28;20476;-44
2023/01/31 02:20:15;;;;;;;62.30;39.87;;;6.10;1.00;;;;;;5029624;28;20045;-43
2023/01/31 02:23:43;;;;;;;60.60;41.47;;;6.20;1.00;;;;;;5035199;28;20014;-44
2023/01/31 02:26:28;;;;;;;66.73;41.93;;;5.90;1.00;;;;;;5041248;28;20154;-44
2023/01/31 02:29:01;;;;;;;62.30;40.77;;;6.20;1.00;;;;;;5052647;28;20031;-44
2023/01/31 02:31:29;;;;;;;64.67;39.90;;;6.20;1.00;;;;;;5041046;28;20037;-44
2023/01/31 02:34:24;;;;;;;61.07;40.53;;;6.20;1.00;;;;;;5036435;28;20045;-44
2023/01/31 02:37:27;;;;;;;62.97;41.10;;;5.80;1.00;;;;;;5041318;28;20369;-47
2023/01/31 02:40:21;;;;;;;67.13;41.73;;;6.10;1.00;;;;;;5023542;28;20486;-43
2023/01/31 02:43:02;;;;;;;64.47;40.77;;;6.00;1.00;;;;;;5034512;28;20025;-45
2023/01/31 02:45:49;;;;;;;59.67;39.93;;;6.00;1.00;;;;;;5034594;28;20017;-43
2023/01/31 02:48:18;;;;;;;61.63;40.73;;;6.00;1.00;;;;;;5034680;28;20029;-44
2023/01/31 02:50:53;;;;;;;63.83;39.27;;;6.00;1.00;;;;;;5034340;28;20022;-45
2023/01/31 02:54:04;;;;;;;57.23;38.80;;;5.90;1.00;;;;;;5034701;28;20032;-44
2023/01/31 02:56:34;;;;;;;62.57;40.63;;;6.00;1.00;;;;;;5012151;28;20129;-43
2023/01/31 02:59:18;;;;;;;58.77;39.23;;;5.80;1.00;;;;;;5032053;28;20033;-44
2023/01/31 03:01:48;;;;;;;59.55;39.70;;;5.80;1.00;;;;;;5034401;28;20086;-44
2023/01/31 03:04:14;;;;;;;63.07;40.00;;;5.90;1.00;;;;;;5034299;28;20483;-44
2023/01/31 03:06:53;;;;;;;59.30;40.00;;;5.90;1.00;;;;;;5034219;28;20013;-43
2023/01/31 03:09:49;;;;;;;64.03;41.23;;;5.90;1.00;;;;;;5046366;28;20054;-44
2023/01/31 03:12:18;;;;;;;62.87;40.77;;;5.70;1.00;;;;;;5022573;28;20042;-45
2023/01/31 03:15:04;;;;;;;58.67;39.83;;;5.80;1.00;;;;;;5032955;28;20467;-45
2023/01/31 03:17:48;;;;;;;60.90;38.90;;;5.90;1.00;;;;;;5032304;28;20022;-45
2023/01/31 03:20:17;;;;;;;66.23;40.97;;;6.00;1.00;;;;;;5033764;28;20045;-44
2023/01/31 03:22:48;;;;;;;57.27;38.40;;;5.90;1.00;;;;;;5032426;28;20029;-43
2023/01/31 03:25:16;;;;;;;59.93;39.47;;;6.00;1.00;;;;;;5034045;28;20061;-44
2023/01/31 03:27:47;;;;;;;59.53;40.33;;;5.90;1.00;;;;;;5033870;28;20419;-46
2023/01/31 03:30:18;;;;;;;57.90;37.13;;;5.90;1.00;;;;;;5033872;28;20463;-45
2023/01/31 03:32:57;;;;;;;58.43;39.10;;;6.10;1.00;;;;;;5033608;28;20101;-45
2023/01/31 03:35:26;;;;;;;63.60;40.70;;;5.90;1.00;;;;;;5034029;28;20025;-45
2023/01/31 03:38:22;;;;;;;58.73;40.13;;;6.00;1.00;;;;;;5033730;28;20490;-45
2023/01/31 03:41:07;;;;;;;61.95;40.30;;;6.00;1.00;;;;;;5032925;28;20052;-43
2023/01/31 03:43:38;;;;;;;62.55;41.05;;;5.90;1.00;;;;;;5033738;28;20053;-44
2023/01/31 03:46:30;;;;;;;62.40;40.77;;;5.70;1.00;;;;;;5033532;28;20056;-43
2023/01/31 03:48:58;;;;;;;58.77;39.00;;;5.80;1.00;;;;;;5022428;28;20171;-44
2023/01/31 03:51:28;;;;;;;59.60;39.70;;;5.90;1.00;;;;;;5032799;28;20120;-44
2023/01/31 03:54:00;;;;;;;57.40;38.83;;;6.00;1.00;;;;;;5033459;28;20025;-46
2023/01/31 03:56:54;;;;;;;63.03;39.60;;;6.00;1.00;;;;;;5031714;28;20036;-45
2023/01/31 03:59:25;;;;;;;57.95;38.88;;;6.00;1.00;;;;;;5030677;28;20053;-44
2023/01/31 04:01:54;;;;;;;64.10;41.13;;;5.90;1.00;;;;;;5033086;28;20033;-45
2023/01/31 04:04:35;;;;;;;58.97;39.53;;;5.80;1.00;;;;;;5033058;28;20033;-43
2023/01/31 04:07:02;;;;;;;57.50;39.90;;;6.00;1.00;;;;;;5025827;28;20028;-44
2023/01/31 04:09:28;;;;;;;62.63;40.70;;;5.90;1.00;;;;;;5041807;28;20028;-45
2023/01/31 04:11:57;;;;;;;56.60;38.87;;;5.70;1.00;;;;;;5033584;28;20040;-43
2023/01/31 04:14:23;;;;;;;58.00;39.13;;;5.90;1.00;;;;;;5033125;28;20116;-43
2023/01/31 04:16:49;;;;;;;62.60;41.73;;;5.90;1.00;;;;;;5031507;28;20131;-43
2023/01/31 04:19:14;;;;;;;61.33;40.33;;;6.00;1.00;;;;;;5033067;28;20113;-44
2023/01/31 04:21:40;;;;;;;59.73;40.07;;;5.90;1.00;;;;;;5032450;28;20025;-44
2023/01/31 04:24:08;;;;;;;56.10;38.17;;;6.00;1.00;;;;;;5032791;28;20064;-44
2023/01/31 04:26:33;;;;;;;58.93;38.87;;;6.00;1.00;;;;;;5032757;28;20026;-44
2023/01/31 04:28:59;;;;;;;54.70;37.60;;;6.00;1.00;;;;;;5032522;28;20039;-44
2023/01/31 04:31:25;;;;;;;59.10;39.60;;;6.00;1.00;;;;;;5032210;28;20067;-43
2023/01/31 04:33:50;;;;;;;59.07;39.90;;;5.80;1.00;;;;;;5031043;28;20076;-48
2023/01/31 04:36:16;;;;;;;55.33;38.23;;;5.60;1.00;;;;;;5032576;28;20025;-46
2023/01/31 04:38:42;;;;;;;58.93;40.43;;;5.80;1.00;;;;;;5032456;28;20064;-43
2023/01/31 04:41:07;;;;;;;56.87;39.63;;;5.90;1.00;;;;;;5032354;28;20029;-45
2023/01/31 04:43:33;;;;;;;56.37;39.23;;;5.90;1.00;;;;;;5032343;28;20429;-43
2023/01/31 04:45:58;;;;;;;64.50;40.43;;;5.90;1.00;;;;;;5032587;28;20547;-44
2023/01/31 04:48:24;;;;;;;60.13;40.30;;;5.90;1.00;;;;;;5032582;28;20029;-47
2023/01/31 04:50:50;;;;;;;60.07;40.27;;;5.80;1.00;;;;;;5032159;28;20029;-43
2023/01/31 04:53:15;;;;;;;61.50;39.87;;;5.60;1.00;;;;;;5032208;28;20029;-43
2023/01/31 04:55:41;;;;;;;62.43;40.60;;;5.70;1.00;;;;;;5032239;28;20091;-44
2023/01/31 04:58:07;;;;;;;60.17;39.97;;;5.90;1.00;;;;;;5030917;28;20017;-45
2023/01/31 05:00:33;;;;;;;60.50;40.90;;;5.90;1.00;;;;;;5031959;28;20057;-46
2023/01/31 05:02:58;;;;;;;61.30;40.70;;;5.90;1.00;;;;;;5018279;28;20363;-48
2023/01/31 05:05:24;;;;;;;64.50;41.80;;;5.90;1.00;;;;;;5032233;28;20075;-43
2023/01/31 05:07:49;;;;;;;61.47;39.00;;;5.90;1.00;;;;;;5032033;28;20044;-43
2023/01/31 05:10:17;;;;;;;61.17;40.73;;;5.90;1.00;;;;;;5018420;28;20132;-44
2023/01/31 05:12:54;;;;;;;61.40;39.90;;;5.90;1.00;;;;;;5032169;28;20018;-43
2023/01/31 05:15:20;;;;;;;64.60;40.60;;;5.90;1.00;;;;;;5031862;28;20388;-43
2023/01/31 05:17:52;;;;;;;66.57;40.53;;;6.00;1.00;;;;;;5031968;28;20038;-43
2023/01/31 05:20:18;;;;;;;68.43;43.13;;;5.90;1.00;;;;;;5031866;28;20033;-43
2023/01/31 05:22:47;;;;;;;64.37;41.03;;;5.90;1.00;;;;;;5032005;28;20430;-44
2023/01/31 05:25:13;;;;;;;61.97;41.13;;;5.90;1.00;;;;;;5031885;28;20475;-43
2023/01/31 05:27:39;;;;;;;58.93;39.33;;;6.00;1.00;;;;;;5032253;28;20060;-43
2023/01/31 05:30:06;;;;;;;64.80;42.37;;;6.00;1.00;;;;;;5031935;28;20364;-42
2023/01/31 05:32:31;;;;;;;62.10;43.10;;;6.00;1.00;;;;;;5031920;28;20032;-44
2023/01/31 05:34:57;;;;;;;64.60;41.93;;;5.90;1.00;;;;;;5031954;28;20432;-44
2023/01/31 05:37:22;;;;;;;62.97;40.33;;;5.90;1.00;;;;;;5031533;28;20014;-44
2023/01/31 05:39:48;;;;;;;59.87;40.73;;;5.80;1.00;;;;;;5031487;28;20044;-45
2023/01/31 05:42:14;;;;;;;63.97;42.33;;;5.80;1.00;;;;;;5032624;28;20375;-44
2023/01/31 05:44:39;;;;;;;64.90;42.33;;;5.90;1.00;;;;;;5035809;28;20498;-44
2023/01/31 05:47:05;;;;;;;62.37;40.50;;;6.00;1.00;;;;;;5035699;28;20036;-44
2023/01/31 05:49:32;;;;;;;66.63;41.30;;;5.90;1.00;;;;;;5021698;28;20487;-44
2023/01/31 05:51:58;;;;;;;60.87;40.53;;;5.90;1.00;;;;;;5035861;28;20329;-45
2023/01/31 05:54:36;;;;;;;63.07;41.77;;;5.90;1.00;;;;;;5035446;28;20036;-44
2023/01/31 05:57:02;;;;;;;61.03;41.43;;;6.00;1.00;;;;;;5035351;28;20021;-44
2023/01/31 05:59:30;;;;;;;64.87;41.97;;;6.00;1.00;;;;;;5033802;28;20526;-44
2023/01/31 06:01:55;;;;;;;60.17;40.57;;;6.00;1.00;;;;;;5035312;28;20040;-45
2023/01/31 06:04:21;;;;;;;63.43;39.50;;;6.00;1.00;;;;;;5035338;28;20025;-44
2023/01/31 06:06:46;;;;;;;60.40;40.23;;;6.00;1.00;;;;;;5030441;28;20026;-45
2023/01/31 06:09:12;;;;;;;61.80;41.60;;;6.00;1.00;;;;;;5040589;28;20032;-44
2023/01/31 06:11:37;;;;;;;63.10;41.50;;;6.00;1.00;;;;;;5028119;28;20443;-45
2023/01/31 06:14:03;;;;;;;61.33;41.17;;;6.00;1.00;;;;;;5035193;28;20021;-45
2023/01/31 06:16:29;;;;;;;65.40;43.57;;;6.00;1.00;;;;;;5023400;28;20077;-44
2023/01/31 06:18:55;;;;;;;60.63;41.20;;;6.10;1.00;;;;;;5035228;28;20124;-44
2023/01/31 06:21:22;;;;;;;63.77;42.53;;;6.10;1.00;;;;;;5034135;28;20088;-44
2023/01/31 06:23:47;;;;;;;63.40;40.67;;;6.10;1.00;;;;;;5034923;28;20017;-44
2023/01/31 06:26:13;;;;;;;63.93;40.80;;;6.00;1.00;;;;;;5034881;28;20029;-45
2023/01/31 06:28:39;;;;;;;65.47;45.07;;;6.10;1.00;;;;;;5034932;28;20108;-45
2023/01/31 06:31:09;;;;;;;64.70;43.00;;;6.10;1.00;;;;;;5034634;28;20423;-45
2023/01/31 06:33:35;;;;;;;64.40;42.87;;;6.00;1.00;;;;;;5033520;28;20168;-44
2023/01/31 06:36:01;;;;;;;59.37;42.47;;;6.10;1.00;;;;;;5033399;28;20486;-47
2023/01/31 06:38:27;;;;;;;69.13;43.30;;;6.10;1.00;;;;;;5034981;28;20022;-44
2023/01/31 06:40:52;;;;;;;67.53;44.27;;;6.10;1.00;;;;;;5034611;28;20112;-44
2023/01/31 06:43:18;;;;;;;66.07;42.00;;;6.10;1.00;;;;;;5034634;28;20174;-45
2023/01/31 06:45:44;;;;;;;68.93;44.80;;;6.10;1.00;;;;;;5034480;28;20032;-44
2023/01/31 06:48:11;;;;;;;64.60;43.27;;;6.10;1.00;;;;;;5034382;28;20032;-46
2023/01/31 06:50:36;;;;;;;69.70;42.97;;;6.10;1.00;;;;;;5034391;28;20025;-45
2023/01/31 06:53:02;;;;;;;66.03;43.90;;;6.10;1.00;;;;;;5025848;28;20080;-45
2023/01/31 06:55:28;;;;;;;66.40;43.10;;;6.10;1.00;;;;;;5034440;28;20033;-44
2023/01/31 06:57:57;;;;;;;62.40;41.80;;;6.10;1.00;;;;;;5034211;28;20443;-45
2023/01/31 07:00:24;;;;;;;67.37;43.93;;;6.10;1.00;;;;;;5034150;28;20111;-49
2023/01/31 07:02:51;;;;;;;68.70;44.83;;;6.10;1.00;;;;;;5032817;28;20084;-51
2023/01/31 07:05:17;;;;;;;69.70;43.50;;;6.10;1.00;;;;;;5032869;28;20029;-51
2023/01/31 07:07:43;;;;;;;63.93;42.87;;;6.20;1.00;;;;;;5033892;28;20030;-44
2023/01/31 07:10:09;;;;;;;64.37;43.70;;;6.20;1.00;;;;;;5047874;28;20462;-44
2023/01/31 07:12:35;;;;;;;63.73;42.73;;;6.10;1.00;;;;;;5034203;28;20044;-44
2023/01/31 07:15:01;;;;;;;64.13;42.30;;;6.10;1.00;;;;;;5034000;28;20029;-45
2023/01/31 07:17:26;;;;;;;66.00;42.93;;;6.20;1.00;;;;;;5034132;28;20112;-45
2023/01/31 07:19:52;;;;;;;68.70;43.97;;;6.20;1.00;;;;;;5033693;28;20061;-44
2023/01/31 07:22:18;;;;;;;66.70;43.47;;;6.30;1.00;;;;;;5027971;28;20026;-45
2023/01/31 07:24:44;;;;;;;67.83;44.13;;;6.20;1.00;;;;;;5026822;28;20108;-45
2023/01/31 07:27:12;;;;;;;77.67;46.90;;;6.20;1.00;;;;;;5022691;28;20160;-45
2023/01/31 07:29:38;;;;;;;74.93;44.23;;;6.30;1.00;;;;;;5033744;28;20479;-44
2023/01/31 07:32:04;;;;;;;68.53;43.33;;;6.30;1.00;;;;;;5033647;28;20030;-45
2023/01/31 07:34:30;;;;;;;64.80;42.83;;;6.40;1.00;;;;;;5023611;28;20136;-46
2023/01/31 07:36:55;;;;;;;66.73;44.70;;;6.30;1.00;;;;;;5033455;28;20116;-45
2023/01/31 07:39:22;;;;;;;64.80;42.67;;;6.30;1.00;;;;;;5033554;28;20056;-45
2023/01/31 07:41:48;;;;;;;66.23;43.07;;;6.40;1.00;;;;;;5033458;28;20099;-45
2023/01/31 07:44:14;;;;;;;65.13;43.73;;;6.40;1.00;;;;;;5033397;28;20025;-45
2023/01/31 07:46:40;;;;;;;69.40;45.00;;;6.40;1.00;;;;;;5033489;28;20479;-46
2023/01/31 07:49:08;;;;;;;69.17;44.07;;;6.50;1.00;;;;;;5025034;28;20029;-45
2023/01/31 07:51:34;;;;;;;67.00;45.20;;;6.50;1.00;;;;;;5033548;28;20034;-45
2023/01/31 07:54:01;;;;;;;72.83;45.77;;;6.60;1.00;;;;;;5033791;28;20057;-44
2023/01/31 07:56:27;;;;;;;67.13;43.30;;;6.50;1.00;;;;;;5033086;28;20029;-47
2023/01/31 07:58:52;;;;;;;69.00;45.20;;;6.60;1.00;;;;;;5033199;28;20029;-45
2023/01/31 08:04:09;;;;;;;65.30;43.47;;;6.70;1.00;;;;;;5021300;28;20359;-45
2023/01/31 08:06:38;;;;;;;74.47;47.17;;;6.70;1.00;;;;;;5026794;28;20037;-45
2023/01/31 08:09:03;;;;;;;68.20;47.00;;;6.70;1.00;;;;;;5043086;28;20025;-45
2023/01/31 08:11:29;;;;;;;71.73;46.13;;;6.80;1.00;;;;;;5036720;28;20120;-46
2023/01/31 08:13:54;;;;;;;73.03;48.10;;;6.80;1.00;;;;;;5023519;28;20518;-46
2023/01/31 08:16:20;;;;;;;67.27;47.60;;;6.80;1.00;;;;;;5032911;28;20475;-44
2023/01/31 08:18:47;;;;;;;68.93;46.20;;;6.80;1.00;;;;;;5026800;28;20444;-45
2023/01/31 08:21:14;;;;;;;72.57;47.50;;;6.70;1.00;;;;;;5025291;28;20498;-44
2023/01/31 08:23:40;;;;;;;72.57;46.60;;;6.70;1.00;;;;;;5032489;28;20470;-46
2023/01/31 08:26:11;;;;;;;71.43;47.77;;;6.60;1.00;;;;;;5032595;28;20033;-45
2023/01/31 08:28:38;;;;;;;72.50;46.87;;;6.70;1.00;;;;;;5032555;28;20131;-46
2023/01/31 08:31:04;;;;;;;71.20;47.10;;;6.80;1.00;;;;;;5032429;28;20029;-45
2023/01/31 08:33:30;;;;;;;74.63;49.40;;;6.80;1.00;;;;;;5021936;28;20034;-44
2023/01/31 08:35:56;;;;;;;68.93;47.57;;;6.80;1.00;;;;;;5029590;28;20103;-44
2023/01/31 08:38:21;;;;;;;74.47;48.53;;;6.80;1.00;;;;;;5030515;28;20026;-44
2023/01/31 08:40:49;;;;;;;66.67;46.47;;;6.80;1.00;;;;;;5032240;28;20051;-45
2023/01/31 08:43:14;;;;;;;76.20;49.77;;;6.90;1.00;;;;;;5028884;28;20025;-45
2023/01/31 08:45:40;;;;;;;78.47;51.97;;;6.90;1.00;;;;;;5032313;28;20104;-46
2023/01/31 08:48:06;;;;;;;73.77;49.30;;;6.90;1.00;;;;;;5032257;28;20022;-44
2023/01/31 08:50:32;;;;;;;74.00;49.50;;;6.90;1.00;;;;;;5032110;28;20029;-44
2023/01/31 08:53:02;;;;;;;76.90;50.70;;;6.90;1.00;;;;;;5032303;28;20021;-43
2023/01/31 08:55:30;;;;;;;75.30;50.40;;;6.90;1.00;;;;;;5024521;28;20329;-44
2023/01/31 08:57:56;;;;;;;77.03;50.40;;;7.00;1.00;;;;;;5032262;28;20414;-44
2023/01/31 09:00:22;;;;;;;79.50;53.07;;;7.00;1.00;;;;;;5031622;28;20046;-44
2023/01/31 09:02:53;;;;;;;77.83;51.57;;;7.10;1.00;;;;;;5032207;28;20108;-44
2023/01/31 09:05:19;;;;;;;78.20;49.77;;;7.10;1.00;;;;;;5032362;28;20515;-45
2023/01/31 09:07:44;;;;;;;75.77;51.77;;;7.10;1.00;;;;;;5032227;28;20059;-46
2023/01/31 09:10:10;;;;;;;75.20;50.17;;;7.10;1.00;;;;;;5032257;28;20021;-44
2023/01/31 09:12:36;;;;;;;74.40;49.70;;;7.20;1.00;;;;;;5032224;28;20038;-44
2023/01/31 09:15:02;;;;;;;74.80;51.77;;;7.20;1.00;;;;;;5030729;28;20033;-44
2023/01/31 09:17:28;;;;;;;71.03;49.17;;;7.20;1.00;;;;;;5035402;28;20049;-45
2023/01/31 09:19:54;;;;;;;72.90;50.40;;;7.20;1.00;;;;;;5035911;28;20510;-45
2023/01/31 09:22:19;;;;;;;71.37;49.13;;;7.20;1.00;;;;;;5036320;28;20530;-44
2023/01/31 09:24:45;;;;;;;76.00;51.60;;;7.20;1.00;;;;;;5036364;28;20074;-45
2023/01/31 09:27:11;;;;;;;76.97;51.23;;;7.30;1.00;;;;;;5034597;28;20116;-47
2023/01/31 09:29:37;;;;;;;76.97;52.00;;;7.30;1.00;;;;;;5035959;28;20117;-44
2023/01/31 09:32:03;;;;;;;72.63;50.17;;;7.30;1.00;;;;;;5034373;28;20060;-44
2023/01/31 09:34:29;;;;;;;74.93;53.30;;;7.40;1.00;;;;;;5035785;28;20037;-45
2023/01/31 09:36:56;;;;;;;73.67;51.57;;;7.40;1.00;;;;;;5034467;28;20017;-47
2023/01/31 09:39:22;;;;;;;79.27;54.03;;;7.40;1.00;;;;;;5036070;28;20133;-45
2023/01/31 09:42:07;;;;;;;72.80;50.73;;;7.40;1.00;;;;;;5035919;28;20037;-45
2023/01/31 09:44:40;;;;;;;73.35;50.78;;;7.30;1.00;;;;;;5024439;28;20053;-45
2023/01/31 09:47:19;;;;;;;76.30;50.03;;;7.30;1.00;;;;;;5034118;28;20328;-45
2023/01/31 09:49:56;;;;;;;74.67;51.07;;;7.30;1.00;;;;;;5033482;28;20108;-44
2023/01/31 09:52:22;;;;;;;72.60;49.30;;;7.20;1.00;;;;;;5035691;28;20026;-45
2023/01/31 09:54:48;;;;;;;71.70;49.73;;;7.30;1.00;;;;;;5035443;28;20026;-46
2023/01/31 09:57:45;;;;;;;77.03;50.33;;;7.20;1.00;;;;;;5034090;28;20080;-44
2023/01/31 10:00:11;;;;;;;72.13;49.93;;;7.30;1.00;;;;;;5033740;28;20422;-44
2023/01/31 10:02:55;;;;;;;73.60;50.93;;;7.40;1.00;;;;;;5035138;28;20044;-44
2023/01/31 10:05:37;;;;;;;76.17;51.33;;;7.40;1.00;;;;;;5021908;28;20033;-44
2023/01/31 10:08:31;;;;;;;74.43;50.40;;;7.50;1.00;;;;;;5036848;28;20075;-45
2023/01/31 10:11:05;;;;;;;73.80;50.87;;;7.60;1.00;;;;;;5040238;28;20458;-45
2023/01/31 10:13:35;;;;;;;75.03;52.03;;;7.60;1.00;;;;;;5035203;28;20083;-45
2023/01/31 10:16:18;;;;;;;70.17;51.30;;;7.60;1.00;;;;;;5035187;28;20109;-44
2023/01/31 10:18:53;;;;;;;75.93;50.33;;;7.50;1.00;;;;;;5021537;28;20504;-45
2023/01/31 10:21:25;;;;;;;73.78;52.53;;;7.60;1.00;;;;;;5028002;28;20033;-46
2023/01/31 10:23:56;;;;;;;71.00;50.57;;;7.60;1.00;;;;;;5035042;28;20024;-44
2023/01/31 10:26:27;;;;;;;67.47;50.23;;;7.70;1.00;;;;;;5034843;28;20356;-44
2023/01/31 10:29:12;;;;;;;72.13;49.73;;;7.80;1.00;;;;;;5042547;28;20398;-44
2023/01/31 10:31:43;;;;;;;71.72;50.00;;;7.90;1.00;;;;;;5043326;28;20053;-44
2023/01/31 10:34:33;;;;;;;75.20;50.87;;;7.90;1.00;;;;;;5053621;28;20378;-44
2023/01/31 10:37:12;;;;;;;70.90;49.73;;;8.00;1.00;;;;;;5035130;28;20021;-47
2023/01/31 10:39:43;;;;;;;70.73;49.13;;;8.00;1.00;;;;;;5038635;28;20013;-44
2023/01/31 10:42:23;;;;;;;65.70;47.13;;;8.10;1.00;;;;;;5054338;28;20478;-47
2023/01/31 10:44:53;;;;;;;63.90;46.13;;;8.10;1.00;;;;;;5033283;28;20105;-49
2023/01/31 10:47:23;;;;;;;69.37;45.13;;;8.10;1.00;;;;;;5034696;28;20333;-49
2023/01/31 10:49:50;;;;;;;70.47;47.27;;;8.10;1.00;;;;;;5033139;28;20387;-44
2023/01/31 10:52:27;;;;;;;72.33;47.87;;;8.20;1.00;;;;;;5032813;28;20087;-45
2023/01/31 10:55:17;;;;;;;64.30;46.47;;;8.20;1.00;;;;;;5033084;28;20379;-47
2023/01/31 10:57:43;;;;;;;68.10;45.93;;;8.10;1.00;;;;;;5046812;28;20033;-43
2023/01/31 11:00:24;;;;;;;68.33;46.23;;;8.30;1.00;;;;;;5051979;28;20102;-46
2023/01/31 11:02:50;;;;;;;62.83;42.77;;;8.30;1.00;;;;;;5053903;28;20143;-45
2023/01/31 11:05:19;;;;;;;62.23;43.47;;;8.20;1.00;;;;;;5035366;28;20041;-46
2023/01/31 11:07:45;;;;;;;67.40;45.57;;;8.20;1.00;;;;;;5033725;28;20029;-44
2023/01/31 11:10:26;;;;;;;68.53;45.20;;;8.20;1.00;;;;;;5022420;28;20502;-44
2023/01/31 11:13:08;;;;;;;63.47;44.50;;;8.20;1.00;;;;;;5033980;28;20032;-45
2023/01/31 11:15:38;;;;;;;68.30;45.83;;;8.30;1.00;;;;;;5033714;28;20025;-44
2023/01/31 11:18:04;;;;;;;62.77;42.73;;;8.40;1.00;;;;;;5033858;28;20441;-45
2023/01/31 11:20:34;;;;;;;64.40;44.00;;;8.30;1.00;;;;;;5033590;28;20040;-45
2023/01/31 11:23:03;;;;;;;64.00;43.37;;;8.40;1.00;;;;;;5033564;28;20045;-45
2023/01/31 11:25:30;;;;;;;63.53;42.13;;;8.40;1.00;;;;;;5033440;28;20049;-46
2023/01/31 11:28:03;;;;;;;60.00;40.03;;;8.40;1.00;;;;;;5033507;28;20025;-47
2023/01/31 11:30:37;;;;;;;65.33;43.73;;;8.40;1.00;;;;;;5034523;28;20033;-44
2023/01/31 11:33:03;;;;;;;62.53;41.73;;;8.50;1.00;;;;;;5053116;28;20020;-45
2023/01/31 11:35:33;;;;;;;63.63;44.70;;;8.50;1.00;;;;;;5029216;28;20033;-46
2023/01/31 11:38:22;;;;;;;68.30;45.10;;;8.60;1.00;;;;;;5033186;28;20028;-48
2023/01/31 11:40:48;;;;;;;66.43;46.90;;;8.70;1.00;;;;;;5028236;28;20204;-45
2023/01/31 11:43:13;;;;;;;63.57;44.73;;;8.70;1.00;;;;;;5033330;28;20053;-44
2023/01/31 11:45:44;;;;;;;70.90;46.50;;;8.70;1.00;;;;;;5026616;28;20117;-44
2023/01/31 11:48:18;;;;;;;65.27;45.57;;;8.70;1.00;;;;;;5028463;28;20021;-47
2023/01/31 11:50:53;;;;;;;63.17;44.05;;;8.70;1.00;;;;;;5031704;28;20083;-43
2023/01/31 11:53:32;;;;;;;61.83;43.87;;;8.80;1.00;;;;;;5015627;28;20530;-46
2023/01/31 11:56:11;;;;;;;66.30;45.60;;;8.70;1.00;;;;;;5026676;28;20026;-45
2023/01/31 11:58:40;;;;;;;62.47;44.87;;;8.80;1.00;;;;;;5029011;28;20036;-44
2023/01/31 12:01:13;;;;;;;65.73;45.57;;;8.80;1.00;;;;;;5027856;28;20065;-50
2023/01/31 12:03:44;;;;;;;65.83;46.37;;;8.90;1.00;;;;;;5033261;28;20443;-47
2023/01/31 12:06:25;;;;;;;72.93;47.47;;;8.90;1.00;;;;;;5032774;28;20026;-44
2023/01/31 12:08:56;;;;;;;66.00;46.60;;;9.00;1.00;;;;;;5033116;28;20022;-45
2023/01/31 12:11:33;;;;;;;66.77;45.20;;;9.00;1.00;;;;;;5031419;28;20121;-45
2023/01/31 12:14:05;;;;;;;66.33;44.73;;;9.10;1.00;;;;;;5031526;28;20029;-45
2023/01/31 12:16:31;;;;;;;65.53;45.17;;;9.10;1.00;;;;;;5026352;28;20128;-48
2023/01/31 12:19:12;;;;;;;62.90;43.17;;;9.10;1.00;;;;;;5030177;28;20056;-46
2023/01/31 12:21:49;;;;;;;65.33;44.00;;;9.10;1.00;;;;;;5028820;28;20091;-46
2023/01/31 12:24:38;;;;;;;61.83;44.43;;;9.20;1.00;;;;;;5032760;28;20057;-46
2023/01/31 12:27:16;;;;;;;59.73;42.50;;;9.30;1.00;;;;;;5030982;28;20514;-47
2023/01/31 12:29:56;;;;;;;62.40;44.63;;;9.30;1.00;;;;;;5032306;28;20053;-46
2023/01/31 12:32:39;;;;;;;62.10;43.10;;;9.30;1.00;;;;;;5032280;28;20029;-47
2023/01/31 12:35:26;;;;;;;58.27;42.20;;;9.30;1.00;;;;;;5032371;28;20025;-46
2023/01/31 12:37:58;;;;;;;64.93;43.75;;;9.30;1.00;;;;;;5018845;28;20120;-47
2023/01/31 12:40:37;;;;;;;60.90;42.97;;;9.40;1.00;;;;;;5025318;28;20029;-45
2023/01/31 12:43:29;;;;;;;58.00;40.87;;;9.50;1.00;;;;;;5018435;28;20493;-45
2023/01/31 12:46:01;;;;;;;62.60;42.63;;;9.50;1.00;;;;;;5032339;28;20083;-45
2023/01/31 12:48:41;;;;;;;62.78;41.20;;;9.60;1.00;;;;;;5032588;28;20537;-45
2023/01/31 12:51:16;;;;;;;53.78;38.00;;;9.50;1.00;;;;;;5032411;28;20364;-45
2023/01/31 12:54:00;;;;;;;56.83;38.10;;;9.50;1.00;;;;;;5032313;28;20037;-46
2023/01/31 12:57:15;;;;;;;40.83;29.02;;;9.60;1.00;;;;;;5030715;28;20037;-45
2023/01/31 12:59:55;;;;;;;54.83;36.42;;;9.60;1.00;;;;;;5018432;28;20427;-47
2023/01/31 13:03:10;;;;;;;53.50;36.10;;;9.70;1.00;;;;;;5024027;28;20049;-47
2023/01/31 13:05:46;;;;;;;50.45;35.58;;;9.80;1.00;;;;;;5003154;28;20184;-45
2023/01/31 13:08:18;;;;;;;52.97;34.65;;;9.80;1.00;;;;;;5032345;28;20029;-45
2023/01/31 13:10:54;;;;;;;48.95;34.42;;;9.80;1.00;;;;;;5018555;28;20435;-45